Weather reports worldwide

Advertisment
Tarfala, Sweden (2029): temperature & dewpoint: 09.12.2019 01:00:00 - 15.12.2019 01:00:00 (CET)Tarfala, Sweden (2029): wind speed & gusts: 09.12.2019 01:00:00 - 15.12.2019 01:00:00 (CET)Tarfala, Sweden (2029): wind direction: 09.12.2019 01:00:00 - 15.12.2019 01:00:00 (CET)
Date & Time tt [°C] td [°C] ff [km/h] ff [kn] fx [km/h] fx [kn] dd
15.12.2019 01:00:00 -6,5 -7,3 20 11 36 19 SSE
15.12.2019 00:00:00 -6,5 -7,3 30 16 42 23 SSE
14.12.2019 23:00:00 -6,2 -7,0 27 15 34 18 SE
14.12.2019 22:00:00 -6,1 -6,9 19 10 26 14 SSE
14.12.2019 21:00:00 -6,3 -7,1 11 6 22 12 S
14.12.2019 20:00:00 -6,3 -7,1 16 8 19 10 SSE
14.12.2019 19:00:00 -6,4 -7,2 5 3 9 5 SSE
14.12.2019 18:00:00 -6,5 -7,3 4 2 18 10 ENE
14.12.2019 17:00:00 -6,6 -7,4 10 5 15 8 S
14.12.2019 16:00:00 -6,3 -7,1 2 1 19 10 NW
14.12.2019 15:00:00 -6,6 -7,4 15 8 37 20 SSE
14.12.2019 14:00:00 -6,6 -7,3 24 13 28 15 SE
14.12.2019 13:00:00 -4,9 -7,2 23 12 32 17 ESE
14.12.2019 12:00:00 -6,4 -8,2 21 11 24 13 SE
14.12.2019 11:00:00 -7,5 -10,4 7 4 13 7 ESE
14.12.2019 10:00:00 -8,9 -13,2 6 4 14 8 NW
14.12.2019 09:00:00 -11,4 -16,5 6 3 17 9 NW
14.12.2019 08:00:00 -10,1 -14,4 5 3 16 9 NNW
14.12.2019 07:00:00 -12,6 -17,1 5 3 11 6 SSE
14.12.2019 06:00:00 -11,7 -15,2 5 3 15 8 NNW
14.12.2019 05:00:00 -10,6 -13,7 6 3 17 9 N
14.12.2019 04:00:00 -10,2 -13,8 5 3 13 7 N
14.12.2019 03:00:00 -10,3 -12,9 9 5 13 7 NNW
14.12.2019 02:00:00 -10,7 -12,7 6 3 - - NNW
14.12.2019 01:00:00 -11,1 -12,8 2 1 13 7 N
14.12.2019 00:00:00 -11,2 -12,5 5 3 19 10 NNW
13.12.2019 23:00:00 -11,8 -13,4 13 7 18 10 NW
13.12.2019 22:00:00 -11,6 -13,8 9 5 14 8 NW
13.12.2019 21:00:00 -8,7 -10,9 7 4 14 8 N
13.12.2019 20:00:00 -9,6 -11,8 6 4 13 7 N
13.12.2019 19:00:00 -9,4 -11,7 7 4 18 10 N
13.12.2019 18:00:00 -9,7 -11,6 4 2 11 6 N
13.12.2019 17:00:00 -9,0 -11,4 5 3 16 9 NNW
13.12.2019 16:00:00 -8,5 -10,6 8 5 13 7 N
13.12.2019 15:00:00 -10,8 -12,3 8 4 11 6 NW
13.12.2019 14:00:00 -9,6 -10,9 9 5 14 7 NNW
13.12.2019 13:00:00 -8,1 -8,8 8 4 13 7 NNW
13.12.2019 12:00:00 -7,3 -8,5 9 5 15 8 NNW
13.12.2019 11:00:00 -7,4 -8,8 13 7 17 9 W
13.12.2019 10:00:00 -6,8 -8,3 14 7 18 10 NW
13.12.2019 09:00:00 -6,9 -8,3 11 6 19 10 NW
13.12.2019 08:00:00 -7,6 -8,8 12 6 16 9 NW
13.12.2019 07:00:00 -7,6 -9,2 11 6 19 10 W
13.12.2019 06:00:00 -9,2 -10,5 10 5 18 10 NW
13.12.2019 05:00:00 -7,1 -8,9 14 8 18 10 NNW
13.12.2019 04:00:00 -6,6 -8,3 3 1 14 8 N
13.12.2019 03:00:00 -6,2 -8,0 6 4 15 8 W
13.12.2019 02:00:00 -6,1 -7,2 12 7 25 14 S
13.12.2019 01:00:00 -6,5 -7,9 3 1 11 6 WNW
13.12.2019 00:00:00 -6,8 -8,3 3 1 11 6 W
12.12.2019 23:00:00 -6,7 -8,5 6 3 8 4 NW
12.12.2019 22:00:00 -6,7 -8,4 5 3 25 14 NNW
12.12.2019 21:00:00 -6,3 -7,7 11 6 20 11 S
12.12.2019 20:00:00 -7,0 -8,6 0 0 11 6 N
12.12.2019 19:00:00 -7,2 -9,0 4 2 12 6 NE
12.12.2019 18:00:00 -8,2 -10,7 8 4 12 7 NW
12.12.2019 17:00:00 -8,3 -10,4 7 4 18 10 NW
12.12.2019 16:00:00 -7,9 -9,3 5 3 21 12 NW
12.12.2019 15:00:00 -8,8 -10,0 11 6 16 9 NNW
12.12.2019 14:00:00 -10,0 -11,3 9 5 17 9 N
12.12.2019 13:00:00 -11,3 -11,9 7 4 23 13 NNW
12.12.2019 12:00:00 -10,7 -12,4 4 2 19 10 S
12.12.2019 11:00:00 -11,8 -13,1 4 2 13 7 NW
12.12.2019 10:00:00 -12,2 -13,2 7 4 11 6 NNW
12.12.2019 09:00:00 -11,3 -13,0 13 7 18 10 NNW
12.12.2019 08:00:00 -10,8 -12,3 3 2 13 7 NNW
12.12.2019 07:00:00 -9,5 -12,9 6 3 11 6 ESE
12.12.2019 06:00:00 -6,9 -10,8 5 3 14 8 N
12.12.2019 05:00:00 -8,0 -12,5 3 2 10 5 NNW
12.12.2019 04:00:00 -6,4 -12,1 4 2 16 8 NNW
12.12.2019 03:00:00 -3,9 -11,6 8 4 36 19 E
12.12.2019 02:00:00 -2,9 -10,9 20 11 42 23 NW
12.12.2019 01:00:00 -2,8 -9,3 26 14 44 24 WNW
12.12.2019 00:00:00 -2,8 -8,7 16 9 37 20 NW
11.12.2019 23:00:00 -2,8 -7,9 22 12 53 29 WNW
11.12.2019 22:00:00 -2,3 -8,0 25 13 55 30 SSE
11.12.2019 21:00:00 -2,8 -7,5 11 6 56 31 SSE
11.12.2019 20:00:00 -3,0 -6,6 13 7 - - NW
11.12.2019 19:00:00 -3,3 -5,3 37 20 78 42 NNW
11.12.2019 18:00:00 -2,9 -5,9 29 16 63 34 NW
11.12.2019 17:00:00 -3,4 -5,6 15 8 71 39 NNW
11.12.2019 16:00:00 -3,3 -5,3 29 15 85 46 NNW
11.12.2019 15:00:00 -8,2 -9,1 5 3 22 12 SW
11.12.2019 14:00:00 -8,8 -9,9 3 2 7 4 N
11.12.2019 13:00:00 -9,0 -10,1 5 3 11 6 N
11.12.2019 12:00:00 -9,2 -10,4 4 2 13 7 NNW
11.12.2019 11:00:00 -8,9 -10,0 11 6 24 13 S
11.12.2019 10:00:00 -9,4 -10,6 23 12 38 20 SE
11.12.2019 09:00:00 -9,9 -11,1 29 16 56 30 SSE
11.12.2019 08:00:00 -10,7 -12,0 36 19 52 28 SSE
11.12.2019 07:00:00 -11,5 -12,8 23 12 42 23 SSE
11.12.2019 06:00:00 -12,5 -13,9 29 16 38 21 S
11.12.2019 05:00:00 -13,0 -14,6 16 9 38 21 S
11.12.2019 04:00:00 -12,4 -14,3 25 13 33 18 S
11.12.2019 03:00:00 -12,6 -14,2 9 5 22 12 SE
11.12.2019 02:00:00 -12,7 -14,3 16 9 29 16 SE
11.12.2019 01:00:00 -13,1 -14,7 9 5 29 15 SE
11.12.2019 00:00:00 -12,0 -15,7 20 11 31 17 SSE
10.12.2019 23:00:00 -12,4 -16,2 13 7 - - S
10.12.2019 22:00:00 -13,0 -17,7 11 6 19 10 SE
10.12.2019 21:00:00 -12,5 -16,5 8 5 26 14 SW
10.12.2019 20:00:00 -14,0 -19,0 6 4 17 9 N
10.12.2019 19:00:00 -13,5 -18,7 6 4 11 6 NNW
10.12.2019 18:00:00 -12,5 -17,2 13 7 29 16 NNW
10.12.2019 17:00:00 -12,5 -16,3 6 3 29 16 SW
10.12.2019 16:00:00 -11,2 -15,9 11 6 22 12 WNW
10.12.2019 15:00:00 -13,0 -15,9 3 2 27 15 SSW
10.12.2019 14:00:00 -12,5 -15,7 6 3 27 15 ESE
10.12.2019 13:00:00 -11,3 -16,2 25 14 49 26 NW
10.12.2019 12:00:00 -11,6 -16,1 22 12 53 28 NW
10.12.2019 11:00:00 -12,2 -17,6 17 9 45 25 NNW
10.12.2019 10:00:00 -11,7 -18,5 20 11 - - NW
10.12.2019 09:00:00 -11,9 -18,5 19 10 36 19 WNW
10.12.2019 08:00:00 -11,4 -16,7 16 9 29 15 WNW
10.12.2019 07:00:00 -11,2 -15,9 16 9 37 20 NW
10.12.2019 06:00:00 -11,2 -17,0 21 11 46 25 NW
10.12.2019 05:00:00 -11,0 -18,5 27 15 51 27 NW
10.12.2019 04:00:00 -10,0 -15,0 15 8 48 26 WNW
10.12.2019 03:00:00 -9,8 -15,0 24 13 49 27 NW
10.12.2019 02:00:00 -10,2 -16,1 28 15 50 27 NW
10.12.2019 01:00:00 -9,9 -18,1 29 16 49 26 NW
10.12.2019 00:00:00 -9,7 -17,0 22 12 45 24 NNW
09.12.2019 23:00:00 -9,9 -16,2 22 12 54 29 NNW
09.12.2019 22:00:00 -9,5 -14,5 33 18 64 35 WNW
09.12.2019 21:00:00 -9,6 -18,1 29 16 47 25 NW
09.12.2019 20:00:00 -10,7 -20,1 18 10 28 15 NNW
09.12.2019 19:00:00 -11,8 -19,4 18 10 30 16 N
09.12.2019 18:00:00 -13,4 -20,1 11 6 17 9 NNW
09.12.2019 17:00:00 -13,0 -20,1 10 5 18 10 NNW
09.12.2019 16:00:00 -14,1 -20,0 8 5 15 8 NNW
09.12.2019 15:00:00 -13,4 -17,5 5 3 12 6 NNW
09.12.2019 14:00:00 -12,7 -17,0 0 0 11 6 N
09.12.2019 13:00:00 -12,5 -15,1 0 0 11 6 N
09.12.2019 12:00:00 -12,7 -14,4 6 3 9 5 NNW
09.12.2019 11:00:00 -12,8 -14,5 6 3 10 5 N
09.12.2019 10:00:00 -13,4 -15,1 4 2 12 6 NW
09.12.2019 09:00:00 -12,2 -14,9 4 2 15 8 SSW
09.12.2019 08:00:00 -12,6 -15,0 6 4 11 6 NNW
09.12.2019 07:00:00 -11,7 -14,1 4 2 9 5 NE
09.12.2019 06:00:00 -12,1 -14,7 4 2 12 6 N
09.12.2019 05:00:00 -11,8 -14,7 4 2 22 12 S
09.12.2019 04:00:00 -11,5 -14,9 15 8 22 12 NNE
09.12.2019 03:00:00 -11,8 -14,4 11 6 24 13 N
09.12.2019 02:00:00 -11,4 -14,9 13 7 31 17 NNE
09.12.2019 01:00:00 -11,6 -14,4 10 5 29 15 NNE

tt = temperature
td = dewpoint
ff = wind speed
fx = gusts
dd = wind direction

Next stations